sensor_id;sensor_type;location;lat;lon;timestamp;pressure;altitude;pressure_sealevel;temperature;humidity
51526;BME280;37611;51.794;21.590;2023-07-02T00:00:01;98815.16;;;17.68;100.00
51526;BME280;37611;51.794;21.590;2023-07-02T00:04:03;98815.52;;;17.66;100.00
51526;BME280;37611;51.794;21.590;2023-07-02T00:08:04;98816.00;;;17.60;100.00
51526;BME280;37611;51.794;21.590;2023-07-02T00:12:07;98814.53;;;17.50;100.00
51526;BME280;37611;51.794;21.590;2023-07-02T00:16:09;98817.14;;;17.40;100.00
51526;BME280;37611;51.794;21.590;2023-07-02T00:20:10;98813.35;;;17.37;100.00
51526;BME280;37611;51.794;21.590;2023-07-02T00:24:16;98819.07;;;17.39;100.00
51526;BME280;37611;51.794;21.590;2023-07-02T00:28:17;98815.32;;;17.39;100.00
51526;BME280;37611;51.794;21.590;2023-07-02T00:32:19;98820.66;;;17.34;100.00
51526;BME280;37611;51.794;21.590;2023-07-02T00:36:21;98820.40;;;17.32;100.00
51526;BME280;37611;51.794;21.590;2023-07-02T00:40:22;98818.76;;;17.33;100.00
51526;BME280;37611;51.794;21.590;2023-07-02T00:44:24;98810.73;;;17.32;100.00
51526;BME280;37611;51.794;21.590;2023-07-02T00:48:26;98805.84;;;17.28;100.00
51526;BME280;37611;51.794;21.590;2023-07-02T00:52:28;98803.57;;;17.23;100.00
51526;BME280;37611;51.794;21.590;2023-07-02T00:56:29;98798.75;;;17.21;100.00
51526;BME280;37611;51.794;21.590;2023-07-02T01:00:31;98796.45;;;17.18;100.00
51526;BME280;37611;51.794;21.590;2023-07-02T01:04:33;98793.49;;;17.17;100.00
51526;BME280;37611;51.794;21.590;2023-07-02T01:08:34;98792.40;;;17.12;100.00
51526;BME280;37611;51.794;21.590;2023-07-02T01:12:36;98792.13;;;17.06;100.00
51526;BME280;37611;51.794;21.590;2023-07-02T01:16:41;98792.73;;;16.99;100.00
51526;BME280;37611;51.794;21.590;2023-07-02T01:20:45;98785.24;;;16.97;100.00
51526;BME280;37611;51.794;21.590;2023-07-02T01:24:49;98783.88;;;16.95;100.00
51526;BME280;37611;51.794;21.590;2023-07-02T01:28:51;98785.05;;;16.91;100.00
51526;BME280;37611;51.794;21.590;2023-07-02T01:32:53;98781.12;;;16.88;100.00
51526;BME280;37611;51.794;21.590;2023-07-02T01:36:54;98778.70;;;16.86;100.00
51526;BME280;37611;51.794;21.590;2023-07-02T01:40:56;98775.97;;;16.85;100.00
51526;BME280;37611;51.794;21.590;2023-07-02T01:44:58;98780.13;;;16.79;100.00
51526;BME280;37611;51.794;21.590;2023-07-02T01:49:00;98779.77;;;16.75;100.00
51526;BME280;37611;51.794;21.590;2023-07-02T01:53:01;98774.34;;;16.73;100.00
51526;BME280;37611;51.794;21.590;2023-07-02T01:57:03;98773.15;;;16.69;100.00
51526;BME280;37611;51.794;21.590;2023-07-02T02:01:06;98771.44;;;16.64;100.00
51526;BME280;37611;51.794;21.590;2023-07-02T02:05:07;98773.51;;;16.58;100.00
51526;BME280;37611;51.794;21.590;2023-07-02T02:09:11;98775.34;;;16.52;100.00
51526;BME280;37611;51.794;21.590;2023-07-02T02:13:13;98774.23;;;16.48;100.00
51526;BME280;37611;51.794;21.590;2023-07-02T02:17:15;98771.33;;;16.49;100.00
51526;BME280;37611;51.794;21.590;2023-07-02T02:21:17;98771.31;;;16.47;100.00
51526;BME280;37611;51.794;21.590;2023-07-02T02:25:19;98770.31;;;16.41;100.00
51526;BME280;37611;51.794;21.590;2023-07-02T02:29:21;98772.67;;;16.33;100.00
51526;BME280;37611;51.794;21.590;2023-07-02T02:33:22;98768.66;;;16.32;100.00
51526;BME280;37611;51.794;21.590;2023-07-02T02:37:24;98765.08;;;16.31;100.00
51526;BME280;37611;51.794;21.590;2023-07-02T02:41:26;98770.01;;;16.30;100.00
51526;BME280;37611;51.794;21.590;2023-07-02T02:45:27;98770.95;;;16.31;100.00
51526;BME280;37611;51.794;21.590;2023-07-02T02:49:31;98769.77;;;16.31;100.00
51526;BME280;37611;51.794;21.590;2023-07-02T02:53:33;98766.84;;;16.30;100.00
51526;BME280;37611;51.794;21.590;2023-07-02T02:57:34;98762.21;;;16.27;100.00
51526;BME280;37611;51.794;21.590;2023-07-02T03:01:36;98765.88;;;16.28;100.00
51526;BME280;37611;51.794;21.590;2023-07-02T03:05:38;98766.52;;;16.33;100.00
51526;BME280;37611;51.794;21.590;2023-07-02T03:09:39;98760.39;;;16.37;100.00
51526;BME280;37611;51.794;21.590;2023-07-02T03:13:41;98760.86;;;16.40;100.00
51526;BME280;37611;51.794;21.590;2023-07-02T03:17:43;98758.92;;;16.43;100.00
51526;BME280;37611;51.794;21.590;2023-07-02T03:21:44;98753.98;;;16.48;100.00
51526;BME280;37611;51.794;21.590;2023-07-02T03:25:46;98754.00;;;16.60;100.00
51526;BME280;37611;51.794;21.590;2023-07-02T03:29:47;98756.77;;;16.73;100.00
51526;BME280;37611;51.794;21.590;2023-07-02T03:33:49;98760.25;;;16.81;100.00
51526;BME280;37611;51.794;21.590;2023-07-02T03:37:51;98760.72;;;16.84;100.00
51526;BME280;37611;51.794;21.590;2023-07-02T03:41:52;98764.63;;;16.81;100.00
51526;BME280;37611;51.794;21.590;2023-07-02T03:45:54;98766.20;;;16.76;100.00
51526;BME280;37611;51.794;21.590;2023-07-02T03:49:56;98764.61;;;16.77;100.00
51526;BME280;37611;51.794;21.590;2023-07-02T03:53:58;98760.20;;;16.80;100.00
51526;BME280;37611;51.794;21.590;2023-07-02T03:58:00;98765.62;;;16.83;100.00
51526;BME280;37611;51.794;21.590;2023-07-02T04:02:02;98768.71;;;16.84;100.00
51526;BME280;37611;51.794;21.590;2023-07-02T04:06:03;98764.60;;;16.87;100.00
51526;BME280;37611;51.794;21.590;2023-07-02T04:10:08;98760.88;;;16.95;100.00
51526;BME280;37611;51.794;21.590;2023-07-02T04:14:09;98763.90;;;17.04;100.00
51526;BME280;37611;51.794;21.590;2023-07-02T04:18:11;98763.60;;;17.17;100.00
51526;BME280;37611;51.794;21.590;2023-07-02T04:22:13;98755.09;;;17.28;100.00
51526;BME280;37611;51.794;21.590;2023-07-02T04:26:15;98752.73;;;17.38;100.00
51526;BME280;37611;51.794;21.590;2023-07-02T04:30:16;98752.14;;;17.54;100.00
51526;BME280;37611;51.794;21.590;2023-07-02T04:34:18;98753.14;;;17.86;100.00
51526;BME280;37611;51.794;21.590;2023-07-02T04:38:23;98753.09;;;18.14;100.00
51526;BME280;37611;51.794;21.590;2023-07-02T04:42:28;98752.11;;;18.69;100.00
51526;BME280;37611;51.794;21.590;2023-07-02T04:46:32;98754.52;;;18.82;100.00
51526;BME280;37611;51.794;21.590;2023-07-02T04:50:34;98756.83;;;18.73;100.00
51526;BME280;37611;51.794;21.590;2023-07-02T04:54:35;98759.10;;;18.60;100.00
51526;BME280;37611;51.794;21.590;2023-07-02T04:58:37;98757.96;;;18.49;100.00
51526;BME280;37611;51.794;21.590;2023-07-02T05:02:39;98760.73;;;18.46;100.00
51526;BME280;37611;51.794;21.590;2023-07-02T05:06:41;98757.59;;;18.49;100.00
51526;BME280;37611;51.794;21.590;2023-07-02T05:10:42;98757.44;;;18.53;100.00
51526;BME280;37611;51.794;21.590;2023-07-02T05:14:45;98758.16;;;18.51;100.00
51526;BME280;37611;51.794;21.590;2023-07-02T05:18:47;98758.84;;;18.53;100.00
51526;BME280;37611;51.794;21.590;2023-07-02T05:22:49;98759.77;;;18.56;100.00
51526;BME280;37611;51.794;21.590;2023-07-02T05:26:50;98755.89;;;18.59;100.00
51526;BME280;37611;51.794;21.590;2023-07-02T05:30:53;98764.66;;;18.67;100.00
51526;BME280;37611;51.794;21.590;2023-07-02T05:34:54;98761.46;;;18.73;100.00
51526;BME280;37611;51.794;21.590;2023-07-02T05:38:56;98762.91;;;18.78;100.00
51526;BME280;37611;51.794;21.590;2023-07-02T05:42:58;98764.80;;;18.83;100.00
51526;BME280;37611;51.794;21.590;2023-07-02T05:46:59;98763.95;;;18.84;100.00
51526;BME280;37611;51.794;21.590;2023-07-02T05:51:02;98762.21;;;18.89;100.00
51526;BME280;37611;51.794;21.590;2023-07-02T05:55:04;98761.34;;;18.97;100.00
51526;BME280;37611;51.794;21.590;2023-07-02T05:59:06;98759.96;;;19.00;100.00
51526;BME280;37611;51.794;21.590;2023-07-02T06:03:07;98756.17;;;19.05;100.00
51526;BME280;37611;51.794;21.590;2023-07-02T06:07:09;98753.83;;;19.13;100.00
51526;BME280;37611;51.794;21.590;2023-07-02T06:11:11;98757.46;;;19.23;100.00
51526;BME280;37611;51.794;21.590;2023-07-02T06:15:13;98757.08;;;19.33;100.00
51526;BME280;37611;51.794;21.590;2023-07-02T06:19:15;98758.89;;;19.46;100.00
51526;BME280;37611;51.794;21.590;2023-07-02T06:23:17;98752.59;;;19.60;100.00
51526;BME280;37611;51.794;21.590;2023-07-02T06:27:18;98757.70;;;19.68;100.00
51526;BME280;37611;51.794;21.590;2023-07-02T06:31:20;98756.33;;;19.75;100.00
51526;BME280;37611;51.794;21.590;2023-07-02T06:35:22;98753.44;;;19.85;100.00
51526;BME280;37611;51.794;21.590;2023-07-02T06:39:23;98745.30;;;19.97;100.00
51526;BME280;37611;51.794;21.590;2023-07-02T06:43:25;98748.12;;;20.07;100.00
51526;BME280;37611;51.794;21.590;2023-07-02T06:47:27;98749.68;;;20.20;100.00
51526;BME280;37611;51.794;21.590;2023-07-02T06:51:28;98754.28;;;20.32;100.00
51526;BME280;37611;51.794;21.590;2023-07-02T06:55:30;98751.55;;;20.40;100.00
51526;BME280;37611;51.794;21.590;2023-07-02T06:59:32;98748.19;;;20.50;99.99
51526;BME280;37611;51.794;21.590;2023-07-02T07:03:37;98749.21;;;20.63;99.56
51526;BME280;37611;51.794;21.590;2023-07-02T07:07:38;98754.20;;;20.77;98.78
51526;BME280;37611;51.794;21.590;2023-07-02T07:11:40;98759.44;;;20.87;97.46
51526;BME280;37611;51.794;21.590;2023-07-02T07:15:42;98762.13;;;20.98;97.06
51526;BME280;37611;51.794;21.590;2023-07-02T07:19:43;98764.45;;;21.11;96.12
51526;BME280;37611;51.794;21.590;2023-07-02T07:23:45;98769.55;;;21.23;94.84
51526;BME280;37611;51.794;21.590;2023-07-02T07:27:47;98776.34;;;21.25;91.91
51526;BME280;37611;51.794;21.590;2023-07-02T07:31:48;98780.38;;;21.31;91.13
51526;BME280;37611;51.794;21.590;2023-07-02T07:35:50;98784.70;;;21.45;90.53
51526;BME280;37611;51.794;21.590;2023-07-02T07:39:52;98789.56;;;21.56;89.65
51526;BME280;37611;51.794;21.590;2023-07-02T07:43:54;98789.33;;;21.60;89.04
51526;BME280;37611;51.794;21.590;2023-07-02T07:47:55;98788.35;;;21.64;89.11
51526;BME280;37611;51.794;21.590;2023-07-02T07:51:57;98790.70;;;21.65;88.83
51526;BME280;37611;51.794;21.590;2023-07-02T07:55:59;98793.10;;;21.70;89.38
51526;BME280;37611;51.794;21.590;2023-07-02T08:00:02;98795.83;;;21.83;89.42
51526;BME280;37611;51.794;21.590;2023-07-02T08:04:06;98806.13;;;22.00;88.58
51526;BME280;37611;51.794;21.590;2023-07-02T08:08:07;98806.80;;;22.16;87.98
51526;BME280;37611;51.794;21.590;2023-07-02T08:12:10;98810.48;;;22.28;87.20
51526;BME280;37611;51.794;21.590;2023-07-02T08:16:11;98819.30;;;22.46;85.93
51526;BME280;37611;51.794;21.590;2023-07-02T08:20:14;98822.05;;;22.60;85.00
51526;BME280;37611;51.794;21.590;2023-07-02T08:24:18;98824.45;;;22.74;85.48
51526;BME280;37611;51.794;21.590;2023-07-02T08:28:20;98828.23;;;22.89;85.26
51526;BME280;37611;51.794;21.590;2023-07-02T08:32:21;98828.77;;;22.97;84.14
51526;BME280;37611;51.794;21.590;2023-07-02T08:36:23;98831.45;;;22.99;83.37
51526;BME280;37611;51.794;21.590;2023-07-02T08:40:25;98836.14;;;22.96;83.64
51526;BME280;37611;51.794;21.590;2023-07-02T08:44:27;98841.39;;;22.87;83.67
51526;BME280;37611;51.794;21.590;2023-07-02T08:48:29;98843.82;;;22.73;83.37
51526;BME280;37611;51.794;21.590;2023-07-02T08:52:31;98846.52;;;22.51;83.24
51526;BME280;37611;51.794;21.590;2023-07-02T08:56:32;98854.15;;;22.30;83.74
51526;BME280;37611;51.794;21.590;2023-07-02T09:00:34;98872.39;;;22.06;86.02
51526;BME280;37611;51.794;21.590;2023-07-02T09:04:39;98872.19;;;21.59;89.01
51526;BME280;37611;51.794;21.590;2023-07-02T09:08:41;98866.34;;;21.27;91.32
51526;BME280;37611;51.794;21.590;2023-07-02T09:12:42;98863.23;;;21.15;92.57
51526;BME280;37611;51.794;21.590;2023-07-02T09:16:44;98862.05;;;21.10;93.77
51526;BME280;37611;51.794;21.590;2023-07-02T09:20:49;98867.92;;;21.10;94.47
51526;BME280;37611;51.794;21.590;2023-07-02T09:24:56;98861.33;;;21.15;94.46
51526;BME280;37611;51.794;21.590;2023-07-02T09:29:01;98857.55;;;21.18;94.40
51526;BME280;37611;51.794;21.590;2023-07-02T09:33:06;98856.79;;;21.32;93.96
51526;BME280;37611;51.794;21.590;2023-07-02T09:37:09;98850.88;;;21.53;93.77
51526;BME280;37611;51.794;21.590;2023-07-02T09:41:11;98854.71;;;21.80;93.28
51526;BME280;37611;51.794;21.590;2023-07-02T09:45:14;98861.86;;;21.97;91.39
51526;BME280;37611;51.794;21.590;2023-07-02T09:49:20;98867.35;;;22.06;91.10
51526;BME280;37611;51.794;21.590;2023-07-02T09:53:22;98863.81;;;22.21;89.82
51526;BME280;37611;51.794;21.590;2023-07-02T09:57:24;98865.23;;;22.18;89.05
51526;BME280;37611;51.794;21.590;2023-07-02T10:01:26;98874.90;;;22.00;88.72
51526;BME280;37611;51.794;21.590;2023-07-02T10:05:29;98873.12;;;21.80;89.11
51526;BME280;37611;51.794;21.590;2023-07-02T10:09:44;98868.08;;;21.85;89.13
51526;BME280;37611;51.794;21.590;2023-07-02T10:13:57;98864.98;;;22.03;90.34
51526;BME280;37611;51.794;21.590;2023-07-02T10:18:02;98859.34;;;22.32;89.85
51526;BME280;37611;51.794;21.590;2023-07-02T10:22:04;98857.52;;;22.56;89.35
51526;BME280;37611;51.794;21.590;2023-07-02T10:26:17;98858.60;;;22.65;88.66
51526;BME280;37611;51.794;21.590;2023-07-02T10:30:33;98859.30;;;22.58;88.25
51526;BME280;37611;51.794;21.590;2023-07-02T10:34:35;98859.97;;;22.44;88.21
51526;BME280;37611;51.794;21.590;2023-07-02T10:38:37;98862.73;;;22.40;87.96
51526;BME280;37611;51.794;21.590;2023-07-02T10:42:49;98862.70;;;22.39;87.60
51526;BME280;37611;51.794;21.590;2023-07-02T10:46:51;98863.02;;;22.35;86.61
51526;BME280;37611;51.794;21.590;2023-07-02T10:50:53;98864.06;;;22.27;87.11
51526;BME280;37611;51.794;21.590;2023-07-02T10:54:55;98860.94;;;22.30;87.54
51526;BME280;37611;51.794;21.590;2023-07-02T10:58:57;98861.94;;;22.33;88.19
51526;BME280;37611;51.794;21.590;2023-07-02T11:02:59;98862.45;;;22.48;89.25
51526;BME280;37611;51.794;21.590;2023-07-02T11:07:02;98864.14;;;22.59;88.58
51526;BME280;37611;51.794;21.590;2023-07-02T11:11:07;98854.48;;;22.64;88.20
51526;BME280;37611;51.794;21.590;2023-07-02T11:15:13;98851.61;;;22.68;88.29
51526;BME280;37611;51.794;21.590;2023-07-02T11:19:15;98858.47;;;22.69;88.81
51526;BME280;37611;51.794;21.590;2023-07-02T11:23:21;98861.70;;;22.72;88.72
51526;BME280;37611;51.794;21.590;2023-07-02T11:27:24;98867.99;;;22.69;88.96
51526;BME280;37611;51.794;21.590;2023-07-02T11:31:26;98868.33;;;22.70;88.56
51526;BME280;37611;51.794;21.590;2023-07-02T11:35:35;98866.89;;;22.72;88.26
51526;BME280;37611;51.794;21.590;2023-07-02T11:39:37;98866.94;;;22.80;88.72
51526;BME280;37611;51.794;21.590;2023-07-02T11:43:41;98856.80;;;22.87;87.95
51526;BME280;37611;51.794;21.590;2023-07-02T11:47:43;98861.17;;;22.83;87.14
51526;BME280;37611;51.794;21.590;2023-07-02T11:51:45;98855.42;;;22.80;87.08
51526;BME280;37611;51.794;21.590;2023-07-02T11:55:50;98853.61;;;22.71;86.57
51526;BME280;37611;51.794;21.590;2023-07-02T11:59:51;98850.41;;;22.74;87.36
51526;BME280;37611;51.794;21.590;2023-07-02T12:03:54;98847.91;;;22.92;86.38
51526;BME280;37611;51.794;21.590;2023-07-02T12:07:55;98848.83;;;22.94;85.82
51526;BME280;37611;51.794;21.590;2023-07-02T12:11:57;98844.77;;;23.11;85.90
51526;BME280;37611;51.794;21.590;2023-07-02T12:15:59;98847.84;;;23.32;86.30
51526;BME280;37611;51.794;21.590;2023-07-02T12:20:01;98843.71;;;23.55;85.38
51526;BME280;37611;51.794;21.590;2023-07-02T12:24:03;98844.00;;;23.60;84.03
51526;BME280;37611;51.794;21.590;2023-07-02T12:28:10;98845.09;;;23.65;83.46
51526;BME280;37611;51.794;21.590;2023-07-02T12:32:11;98841.74;;;23.90;84.05
51526;BME280;37611;51.794;21.590;2023-07-02T12:36:13;98838.69;;;24.22;83.11
51526;BME280;37611;51.794;21.590;2023-07-02T12:40:16;98836.27;;;24.33;81.27
51526;BME280;37611;51.794;21.590;2023-07-02T12:44:17;98841.80;;;24.22;80.68
51526;BME280;37611;51.794;21.590;2023-07-02T12:48:19;98842.51;;;24.04;80.70
51526;BME280;37611;51.794;21.590;2023-07-02T12:52:21;98853.27;;;23.81;81.33
51526;BME280;37611;51.794;21.590;2023-07-02T12:56:23;98857.61;;;23.57;81.90
51526;BME280;37611;51.794;21.590;2023-07-02T13:00:24;98856.15;;;23.32;82.05
51526;BME280;37611;51.794;21.590;2023-07-02T13:04:27;98864.21;;;23.09;82.72
51526;BME280;37611;51.794;21.590;2023-07-02T13:08:29;98873.11;;;22.91;83.52
51526;BME280;37611;51.794;21.590;2023-07-02T13:12:33;98873.64;;;22.73;84.05
51526;BME280;37611;51.794;21.590;2023-07-02T13:16:35;98874.80;;;22.59;84.50
51526;BME280;37611;51.794;21.590;2023-07-02T13:20:38;98881.41;;;22.51;85.28
51526;BME280;37611;51.794;21.590;2023-07-02T13:24:40;98877.11;;;22.54;85.73
51526;BME280;37611;51.794;21.590;2023-07-02T13:28:42;98875.16;;;22.67;86.16
51526;BME280;37611;51.794;21.590;2023-07-02T13:32:43;98878.91;;;22.85;85.64
51526;BME280;37611;51.794;21.590;2023-07-02T13:36:45;98874.02;;;22.98;85.47
51526;BME280;37611;51.794;21.590;2023-07-02T13:40:47;98873.27;;;23.10;84.85
51526;BME280;37611;51.794;21.590;2023-07-02T13:44:49;98875.48;;;23.28;84.60
51526;BME280;37611;51.794;21.590;2023-07-02T13:48:51;98877.09;;;23.49;82.16
51526;BME280;37611;51.794;21.590;2023-07-02T13:52:52;98881.17;;;23.43;80.25
51526;BME280;37611;51.794;21.590;2023-07-02T13:56:55;98881.30;;;23.52;79.54
51526;BME280;37611;51.794;21.590;2023-07-02T14:00:57;98885.58;;;23.65;79.51
51526;BME280;37611;51.794;21.590;2023-07-02T14:04:59;98885.27;;;23.71;78.84
51526;BME280;37611;51.794;21.590;2023-07-02T14:09:01;98883.84;;;23.73;78.08
51526;BME280;37611;51.794;21.590;2023-07-02T14:13:02;98888.84;;;23.82;78.00
51526;BME280;37611;51.794;21.590;2023-07-02T14:17:05;98896.40;;;23.80;78.64
51526;BME280;37611;51.794;21.590;2023-07-02T14:21:07;98902.03;;;23.64;79.12
51526;BME280;37611;51.794;21.590;2023-07-02T14:25:09;98913.80;;;23.42;78.81
51526;BME280;37611;51.794;21.590;2023-07-02T14:29:10;98916.41;;;23.24;78.34
51526;BME280;37611;51.794;21.590;2023-07-02T14:33:12;98913.33;;;23.06;77.31
51526;BME280;37611;51.794;21.590;2023-07-02T14:37:15;98913.09;;;23.01;76.39
51526;BME280;37611;51.794;21.590;2023-07-02T14:41:16;98911.83;;;23.05;75.86
51526;BME280;37611;51.794;21.590;2023-07-02T14:45:18;98909.55;;;23.09;75.64
51526;BME280;37611;51.794;21.590;2023-07-02T14:49:20;98912.98;;;23.12;74.67
51526;BME280;37611;51.794;21.590;2023-07-02T14:53:22;98914.63;;;23.10;73.89
51526;BME280;37611;51.794;21.590;2023-07-02T14:57:25;98922.22;;;23.06;73.53
51526;BME280;37611;51.794;21.590;2023-07-02T15:01:27;98920.52;;;22.97;73.27
51526;BME280;37611;51.794;21.590;2023-07-02T15:05:29;98926.36;;;22.86;73.18
51526;BME280;37611;51.794;21.590;2023-07-02T15:09:30;98929.54;;;22.71;72.73
51526;BME280;37611;51.794;21.590;2023-07-02T15:13:32;98936.65;;;22.58;72.06
51526;BME280;37611;51.794;21.590;2023-07-02T15:17:35;98937.34;;;22.48;73.12
51526;BME280;37611;51.794;21.590;2023-07-02T15:21:37;98932.27;;;22.38;72.37
51526;BME280;37611;51.794;21.590;2023-07-02T15:25:38;98936.77;;;22.32;72.56
51526;BME280;37611;51.794;21.590;2023-07-02T15:29:40;98944.09;;;22.31;73.11
51526;BME280;37611;51.794;21.590;2023-07-02T15:33:42;98945.89;;;22.29;72.60
51526;BME280;37611;51.794;21.590;2023-07-02T15:37:45;98939.91;;;22.24;71.70
51526;BME280;37611;51.794;21.590;2023-07-02T15:41:47;98942.77;;;22.21;70.62
51526;BME280;37611;51.794;21.590;2023-07-02T15:45:51;98945.47;;;22.17;69.98
51526;BME280;37611;51.794;21.590;2023-07-02T15:49:53;98944.02;;;22.15;69.85
51526;BME280;37611;51.794;21.590;2023-07-02T15:53:55;98943.60;;;22.17;70.22
51526;BME280;37611;51.794;21.590;2023-07-02T15:57:57;98938.34;;;22.16;69.92
51526;BME280;37611;51.794;21.590;2023-07-02T16:01:59;98942.10;;;22.13;69.01
51526;BME280;37611;51.794;21.590;2023-07-02T16:06:02;98936.74;;;22.16;69.14
51526;BME280;37611;51.794;21.590;2023-07-02T16:10:05;98940.10;;;22.21;69.17
51526;BME280;37611;51.794;21.590;2023-07-02T16:14:09;98943.11;;;22.23;68.30
51526;BME280;37611;51.794;21.590;2023-07-02T16:18:12;98944.24;;;22.24;68.43
51526;BME280;37611;51.794;21.590;2023-07-02T16:22:14;98948.13;;;22.21;68.18
51526;BME280;37611;51.794;21.590;2023-07-02T16:26:16;98950.40;;;22.13;68.86
51526;BME280;37611;51.794;21.590;2023-07-02T16:30:18;98952.73;;;22.07;68.88
51526;BME280;37611;51.794;21.590;2023-07-02T16:34:20;98952.17;;;22.00;69.31
51526;BME280;37611;51.794;21.590;2023-07-02T16:38:21;98955.56;;;21.96;69.53
51526;BME280;37611;51.794;21.590;2023-07-02T16:42:23;98962.59;;;21.93;70.07
51526;BME280;37611;51.794;21.590;2023-07-02T16:46:25;98965.30;;;21.91;70.16
51526;BME280;37611;51.794;21.590;2023-07-02T16:50:27;98970.23;;;21.88;69.58
51526;BME280;37611;51.794;21.590;2023-07-02T16:54:28;98975.13;;;21.86;69.44
51526;BME280;37611;51.794;21.590;2023-07-02T16:58:32;98979.16;;;21.83;69.23
51526;BME280;37611;51.794;21.590;2023-07-02T17:02:34;98982.73;;;21.77;68.89
51526;BME280;37611;51.794;21.590;2023-07-02T17:06:37;98984.88;;;21.73;69.33
51526;BME280;37611;51.794;21.590;2023-07-02T17:10:40;98986.00;;;21.69;69.46
51526;BME280;37611;51.794;21.590;2023-07-02T17:14:49;98988.92;;;21.68;69.45
51526;BME280;37611;51.794;21.590;2023-07-02T17:18:51;98988.14;;;21.64;69.24
51526;BME280;37611;51.794;21.590;2023-07-02T17:22:53;98990.05;;;21.58;69.29
51526;BME280;37611;51.794;21.590;2023-07-02T17:26:57;98995.74;;;21.53;69.37
51526;BME280;37611;51.794;21.590;2023-07-02T17:30:59;99004.58;;;21.46;69.55
51526;BME280;37611;51.794;21.590;2023-07-02T17:35:02;99007.59;;;21.38;69.92
51526;BME280;37611;51.794;21.590;2023-07-02T17:39:03;99011.10;;;21.32;70.47
51526;BME280;37611;51.794;21.590;2023-07-02T17:43:07;99015.25;;;21.23;70.79
51526;BME280;37611;51.794;21.590;2023-07-02T17:47:12;99015.83;;;21.14;71.21
51526;BME280;37611;51.794;21.590;2023-07-02T17:51:14;99013.13;;;21.06;71.59
51526;BME280;37611;51.794;21.590;2023-07-02T17:55:16;99019.17;;;20.96;71.99
51526;BME280;37611;51.794;21.590;2023-07-02T17:59:19;99026.52;;;20.87;72.49
51526;BME280;37611;51.794;21.590;2023-07-02T18:03:21;99029.35;;;20.77;73.22
51526;BME280;37611;51.794;21.590;2023-07-02T18:07:23;99033.24;;;20.67;73.90
51526;BME280;37611;51.794;21.590;2023-07-02T18:11:25;99035.86;;;20.55;74.21
51526;BME280;37611;51.794;21.590;2023-07-02T18:15:27;99035.89;;;20.44;74.94
51526;BME280;37611;51.794;21.590;2023-07-02T18:19:28;99044.38;;;20.31;75.66
51526;BME280;37611;51.794;21.590;2023-07-02T18:23:30;99048.52;;;20.19;76.01
51526;BME280;37611;51.794;21.590;2023-07-02T18:27:32;99051.70;;;20.07;76.43
51526;BME280;37611;51.794;21.590;2023-07-02T18:31:34;99054.61;;;19.95;76.98
51526;BME280;37611;51.794;21.590;2023-07-02T18:35:36;99054.02;;;19.86;77.25
51526;BME280;37611;51.794;21.590;2023-07-02T18:39:41;99055.17;;;19.78;77.52
51526;BME280;37611;51.794;21.590;2023-07-02T18:43:43;99058.80;;;19.71;78.19
51526;BME280;37611;51.794;21.590;2023-07-02T18:47:45;99065.96;;;19.66;78.35
51526;BME280;37611;51.794;21.590;2023-07-02T18:51:46;99067.20;;;19.60;78.86
51526;BME280;37611;51.794;21.590;2023-07-02T18:56:03;99070.90;;;19.52;79.29
51526;BME280;37611;51.794;21.590;2023-07-02T19:00:06;99077.83;;;19.45;79.99
51526;BME280;37611;51.794;21.590;2023-07-02T19:04:10;99080.38;;;19.40;80.56
51526;BME280;37611;51.794;21.590;2023-07-02T19:08:12;99089.56;;;19.34;80.99
51526;BME280;37611;51.794;21.590;2023-07-02T19:12:14;99095.95;;;19.29;81.32
51526;BME280;37611;51.794;21.590;2023-07-02T19:16:16;99104.43;;;19.23;82.04
51526;BME280;37611;51.794;21.590;2023-07-02T19:20:18;99112.61;;;19.18;82.83
51526;BME280;37611;51.794;21.590;2023-07-02T19:24:21;99118.11;;;19.07;82.77
51526;BME280;37611;51.794;21.590;2023-07-02T19:28:23;99126.09;;;18.97;83.19
51526;BME280;37611;51.794;21.590;2023-07-02T19:32:25;99131.61;;;18.90;83.85
51526;BME280;37611;51.794;21.590;2023-07-02T19:36:28;99131.92;;;18.81;84.59
51526;BME280;37611;51.794;21.590;2023-07-02T19:40:29;99139.14;;;18.72;84.86
51526;BME280;37611;51.794;21.590;2023-07-02T19:44:31;99145.23;;;18.62;85.62
51526;BME280;37611;51.794;21.590;2023-07-02T19:48:33;99156.05;;;18.51;86.21
51526;BME280;37611;51.794;21.590;2023-07-02T19:52:35;99158.55;;;18.44;86.48
51526;BME280;37611;51.794;21.590;2023-07-02T19:56:37;99170.48;;;18.34;87.21
51526;BME280;37611;51.794;21.590;2023-07-02T20:00:41;99169.91;;;18.29;87.65
51526;BME280;37611;51.794;21.590;2023-07-02T20:04:44;99177.44;;;18.25;88.44
51526;BME280;37611;51.794;21.590;2023-07-02T20:08:49;99185.04;;;18.21;88.96
51526;BME280;37611;51.794;21.590;2023-07-02T20:12:51;99190.06;;;18.19;89.23
51526;BME280;37611;51.794;21.590;2023-07-02T20:16:55;99198.48;;;18.10;89.54
51526;BME280;37611;51.794;21.590;2023-07-02T20:21:03;99198.40;;;18.00;90.50
51526;BME280;37611;51.794;21.590;2023-07-02T20:25:06;99207.03;;;17.90;90.90
51526;BME280;37611;51.794;21.590;2023-07-02T20:29:08;99211.73;;;17.81;91.27
51526;BME280;37611;51.794;21.590;2023-07-02T20:33:11;99213.66;;;17.74;91.92
51526;BME280;37611;51.794;21.590;2023-07-02T20:37:12;99218.12;;;17.66;92.09
51526;BME280;37611;51.794;21.590;2023-07-02T20:41:16;99222.28;;;17.57;92.48
51526;BME280;37611;51.794;21.590;2023-07-02T20:45:18;99225.94;;;17.49;92.79
51526;BME280;37611;51.794;21.590;2023-07-02T20:49:22;99230.86;;;17.41;92.76
51526;BME280;37611;51.794;21.590;2023-07-02T20:53:24;99232.63;;;17.33;93.20
51526;BME280;37611;51.794;21.590;2023-07-02T20:57:26;99245.19;;;17.29;93.66
51526;BME280;37611;51.794;21.590;2023-07-02T21:01:27;99249.89;;;17.21;94.59